FR-0212 weather

Centre Hospitalier Heliport
Albertville, Rhône Alpes, France

Public forecast

Using degrees Celsius for public forecast. Weather courtesy of forecast.io.

METAR (pilot weather report)

Closest report is Annecy-Haute-Savoie-Mont Blanc Airport, 19.2 nm (35.5 km) NW. Retrieved 2019/09/23 02:30 UTC (0 seconds ago):

LFLP 230230Z AUTO /////KT CAVOK 13/12 Q1017

TAF (pilot weather forecast)

Closest forecast is Annecy-Haute-Savoie-Mont Blanc Airport, 19.2 nm (35.5 km) NW. Retrieved 2019/09/23 03:00 UTC (0 seconds ago):

TAF LFLP 230200Z 2303/2403 VRB03KT 9999 BKN020 PROB30 TEMPO 2303/2306 BKN012 BECMG 2308/2310 30005KT SCT030 BECMG 2318/2320 VRB02KT CAVOK